Masuei Maru No31 — JI3555 — position and weather

sailwx.info

Track history (hours):
 
Tides and Currents Weather Stations Pressure Air Temp Water Temp Dewpoint Dewpoint Depression Visibility Wind Speed Wind Dir Waves Ship Positions

Masuei Maru No31

Last reported at 2018-Jan-07 07:53 UTC. Time now 2018-Jan-20 01:11 UTC.
Position N 34°01' E 134°55'.
Warning: this ship's position is 12 days out of date.

Length 32 m.

Type: Tug. MMSI: 431300667.

Date/timePositionNaut miles runAvg speedWind from/ knotsBaromVisibWave heightAir tempDewpointWater temp
2018-Jan-07 07:53N 34°01' E 134°55'3 7.1
2018-Jan-07 07:30N 34°04' E 134°56'3 7.0
2018-Jan-07 07:00N 34°07' E 134°57'4 7.1
2018-Jan-07 06:30N 34°10' E 134°58'3 6.3
2018-Jan-07 05:59N 34°14' E 134°58'2 5.1
2018-Jan-07 05:30N 34°16' E 134°58'2 4.4
2018-Jan-07 05:00N 34°18' E 134°59'2 4.2
2018-Jan-07 04:30N 34°20' E 134°60'2 4.5
2018-Jan-07 04:00N 34°22' E 135°00'3 5.0
2018-Jan-07 03:30N 34°24' E 135°03'2 4.7
2018-Jan-07 03:00N 34°26' E 135°05'3 5.7
2018-Jan-07 02:30N 34°27' E 135°08'3 6.2
2018-Jan-07 02:00N 34°29' E 135°11'3 5.9
2018-Jan-07 01:30N 34°30' E 135°14'6 5.7
2018-Jan-07 00:30N 34°32' E 135°21'2 4.6
2018-Jan-07 00:00N 34°32' E 135°23'1 2.5
2018-Jan-06 23:29N 34°31' E 135°24'0 0.1
2018-Jan-06 22:58N 34°31' E 135°24'0 0.2
2018-Jan-06 22:28N 34°31' E 135°25'2 4.5
2018-Jan-06 22:00N 34°33' E 135°23'510.4
2018-Jan-06 21:30N 34°30' E 135°17'510.5
2018-Jan-06 21:00N 34°27' E 135°12'5 9.8
2018-Jan-06 20:30N 34°23' E 135°08'510.2
2018-Jan-06 20:00N 34°19' E 135°04'4 8.3
2018-Jan-06 19:30N 34°15' E 135°04'5 8.7
2018-Jan-06 18:58N 34°13' E 135°09'0 0.0
2018-Jan-05 02:37N 34°13' E 135°09'1 5.8
2018-Jan-05 02:29N 34°13' E 135°08'6 0.2
2018-Jan-04 02:49N 34°08' E 135°06'410.9
2018-Jan-04 02:25N 34°12' E 135°07'2 0.1
2018-Jan-03 07:24N 34°13' E 135°09'0 0.0
2018-Jan-03 07:00N 34°13' E 135°09'2 4.2
2018-Jan-03 06:30N 34°14' E 135°07'0 0.3
2018-Jan-03 05:35N 34°14' E 135°07'0 2.5
2018-Jan-03 05:30N 34°14' E 135°07'1 2.1
2018-Jan-03 05:00N 34°14' E 135°05'0 0.5
2018-Jan-03 04:28N 34°14' E 135°05'1 1.1
2018-Jan-03 03:55N 34°15' E 135°05'2 5.7
2018-Jan-03 03:30N 34°14' E 135°08'0 0.3
2018-Jan-03 03:00N 34°14' E 135°08'0 0.1
2018-Jan-03 02:23N 34°14' E 135°07'1 2.9
2018-Jan-03 02:00N 34°14' E 135°06'1 1.2
2018-Jan-03 01:30N 34°14' E 135°05'2 4.3
2018-Jan-03 01:00N 34°13' E 135°08'  
2017-Dec-31 07:41N 34°13' E 135°09'2 9.0
2017-Dec-31 07:30N 34°13' E 135°07'1 2.7
2017-Dec-31 07:00N 34°14' E 135°08'1 1.1
2017-Dec-31 06:30N 34°14' E 135°07'1 1.2
2017-Dec-31 05:58N 34°14' E 135°06'1 2.1
2017-Dec-31 05:30N 34°14' E 135°07'1 2.9
2017-Dec-31 05:00N 34°14' E 135°06'612.1
2017-Dec-31 04:29N 34°08' E 135°04'811.7
2017-Dec-31 03:49N 34°00' E 135°03'4 2.6
2017-Dec-31 02:24N 33°57' E 135°05'3 0.6
2017-Dec-30 22:00N 33°59' E 135°03'810.8
2017-Dec-30 21:13N 34°07' E 135°05'311.2
2017-Dec-30 20:58N 34°10' E 135°06'4 8.2
2017-Dec-30 20:30N 34°13' E 135°09'0 0.0
2017-Dec-30 02:48N 34°13' E 135°09'2 7.8
2017-Dec-30 02:30N 34°14' E 135°06'1 0.9
2017-Dec-30 01:26N 34°14' E 135°07'1 2.8
2017-Dec-30 01:00N 34°14' E 135°06'0 0.9
2017-Dec-30 00:28N 34°14' E 135°06'2 5.2
2017-Dec-30 00:00N 34°13' E 135°08'  
Track history (hours):
 
Tides and Currents Weather Stations Pressure Air Temp Water Temp Dewpoint Dewpoint Depression Visibility Wind Speed Wind Dir Waves Ship Positions

Masuei Maru No31

Last reported at 2018-Jan-07 07:53 UTC. Time now 2018-Jan-20 01:11 UTC.
Position N 34°01' E 134°55'.
Warning: this ship's position is 12 days out of date.

Length 32 m.

Type: Tug. MMSI: 431300667.

Date/timePositionNaut miles runAvg speedWind from/ knotsBaromVisibWave heightAir tempDewpointWater temp
2018-Jan-07 07:53N 34°01' E 134°55'3 7.1
2018-Jan-07 07:30N 34°04' E 134°56'3 7.0
2018-Jan-07 07:00N 34°07' E 134°57'4 7.1
2018-Jan-07 06:30N 34°10' E 134°58'3 6.3
2018-Jan-07 05:59N 34°14' E 134°58'2 5.1
2018-Jan-07 05:30N 34°16' E 134°58'2 4.4
2018-Jan-07 05:00N 34°18' E 134°59'2 4.2
2018-Jan-07 04:30N 34°20' E 134°60'2 4.5
2018-Jan-07 04:00N 34°22' E 135°00'3 5.0
2018-Jan-07 03:30N 34°24' E 135°03'2 4.7
2018-Jan-07 03:00N 34°26' E 135°05'3 5.7
2018-Jan-07 02:30N 34°27' E 135°08'3 6.2
2018-Jan-07 02:00N 34°29' E 135°11'3 5.9
2018-Jan-07 01:30N 34°30' E 135°14'6 5.7
2018-Jan-07 00:30N 34°32' E 135°21'2 4.6
2018-Jan-07 00:00N 34°32' E 135°23'1 2.5
2018-Jan-06 23:29N 34°31' E 135°24'0 0.1
2018-Jan-06 22:58N 34°31' E 135°24'0 0.2
2018-Jan-06 22:28N 34°31' E 135°25'2 4.5
2018-Jan-06 22:00N 34°33' E 135°23'510.4
2018-Jan-06 21:30N 34°30' E 135°17'510.5
2018-Jan-06 21:00N 34°27' E 135°12'5 9.8
2018-Jan-06 20:30N 34°23' E 135°08'510.2
2018-Jan-06 20:00N 34°19' E 135°04'4 8.3
2018-Jan-06 19:30N 34°15' E 135°04'5 8.7
2018-Jan-06 18:58N 34°13' E 135°09'0 0.0
2018-Jan-05 02:37N 34°13' E 135°09'1 5.8
2018-Jan-05 02:29N 34°13' E 135°08'6 0.2
2018-Jan-04 02:49N 34°08' E 135°06'410.9
2018-Jan-04 02:25N 34°12' E 135°07'2 0.1
2018-Jan-03 07:24N 34°13' E 135°09'0 0.0
2018-Jan-03 07:00N 34°13' E 135°09'2 4.2
2018-Jan-03 06:30N 34°14' E 135°07'0 0.3
2018-Jan-03 05:35N 34°14' E 135°07'0 2.5
2018-Jan-03 05:30N 34°14' E 135°07'1 2.1
2018-Jan-03 05:00N 34°14' E 135°05'0 0.5
2018-Jan-03 04:28N 34°14' E 135°05'1 1.1
2018-Jan-03 03:55N 34°15' E 135°05'2 5.7
2018-Jan-03 03:30N 34°14' E 135°08'0 0.3
2018-Jan-03 03:00N 34°14' E 135°08'0 0.1
2018-Jan-03 02:23N 34°14' E 135°07'1 2.9
2018-Jan-03 02:00N 34°14' E 135°06'1 1.2
2018-Jan-03 01:30N 34°14' E 135°05'2 4.3
2018-Jan-03 01:00N 34°13' E 135°08'  
2017-Dec-31 07:41N 34°13' E 135°09'2 9.0
2017-Dec-31 07:30N 34°13' E 135°07'1 2.7
2017-Dec-31 07:00N 34°14' E 135°08'1 1.1
2017-Dec-31 06:30N 34°14' E 135°07'1 1.2
2017-Dec-31 05:58N 34°14' E 135°06'1 2.1
2017-Dec-31 05:30N 34°14' E 135°07'1 2.9
2017-Dec-31 05:00N 34°14' E 135°06'612.1
2017-Dec-31 04:29N 34°08' E 135°04'811.7
2017-Dec-31 03:49N 34°00' E 135°03'4 2.6
2017-Dec-31 02:24N 33°57' E 135°05'3 0.6
2017-Dec-30 22:00N 33°59' E 135°03'810.8
2017-Dec-30 21:13N 34°07' E 135°05'311.2
2017-Dec-30 20:58N 34°10' E 135°06'4 8.2
2017-Dec-30 20:30N 34°13' E 135°09'0 0.0
2017-Dec-30 02:48N 34°13' E 135°09'2 7.8
2017-Dec-30 02:30N 34°14' E 135°06'1 0.9
2017-Dec-30 01:26N 34°14' E 135°07'1 2.8
2017-Dec-30 01:00N 34°14' E 135°06'0 0.9
2017-Dec-30 00:28N 34°14' E 135°06'2 5.2
2017-Dec-30 00:00N 34°13' E 135°08'  

Dump ship's entire track history